sensor_id;sensor_type;location;lat;lon;timestamp;P1;durP1;ratioP1;P2;durP2;ratioP2
3293;SDS011;1659;51.470;6.770;2022-12-10T00:00:40;85.27;;;35.60;;
3293;SDS011;1659;51.470;6.770;2022-12-10T00:03:07;91.67;;;35.40;;
3293;SDS011;1659;51.470;6.770;2022-12-10T00:05:34;89.53;;;34.43;;
3293;SDS011;1659;51.470;6.770;2022-12-10T00:08:01;78.23;;;35.73;;
3293;SDS011;1659;51.470;6.770;2022-12-10T00:10:27;74.90;;;34.40;;
3293;SDS011;1659;51.470;6.770;2022-12-10T00:12:54;93.10;;;35.47;;
3293;SDS011;1659;51.470;6.770;2022-12-10T00:15:20;94.30;;;36.60;;
3293;SDS011;1659;51.470;6.770;2022-12-10T00:17:47;84.57;;;35.73;;
3293;SDS011;1659;51.470;6.770;2022-12-10T00:20:15;101.77;;;38.50;;
3293;SDS011;1659;51.470;6.770;2022-12-10T00:22:41;78.57;;;35.10;;
3293;SDS011;1659;51.470;6.770;2022-12-10T00:25:08;74.33;;;34.10;;
3293;SDS011;1659;51.470;6.770;2022-12-10T00:27:34;83.07;;;34.97;;
3293;SDS011;1659;51.470;6.770;2022-12-10T00:30:01;86.07;;;35.67;;
3293;SDS011;1659;51.470;6.770;2022-12-10T00:32:28;90.47;;;35.47;;
3293;SDS011;1659;51.470;6.770;2022-12-10T00:34:55;88.70;;;36.80;;
3293;SDS011;1659;51.470;6.770;2022-12-10T00:37:23;85.20;;;35.10;;
3293;SDS011;1659;51.470;6.770;2022-12-10T00:39:49;77.17;;;32.70;;
3293;SDS011;1659;51.470;6.770;2022-12-10T00:42:16;84.73;;;35.87;;
3293;SDS011;1659;51.470;6.770;2022-12-10T00:44:42;87.53;;;35.67;;
3293;SDS011;1659;51.470;6.770;2022-12-10T00:47:09;82.37;;;36.57;;
3293;SDS011;1659;51.470;6.770;2022-12-10T00:49:35;83.13;;;35.37;;
3293;SDS011;1659;51.470;6.770;2022-12-10T00:52:02;91.83;;;34.87;;
3293;SDS011;1659;51.470;6.770;2022-12-10T00:54:30;90.73;;;35.67;;
3293;SDS011;1659;51.470;6.770;2022-12-10T00:56:56;84.90;;;36.37;;
3293;SDS011;1659;51.470;6.770;2022-12-10T00:59:23;75.50;;;32.60;;
3293;SDS011;1659;51.470;6.770;2022-12-10T01:01:49;87.43;;;33.83;;
3293;SDS011;1659;51.470;6.770;2022-12-10T01:04:16;76.47;;;32.30;;
3293;SDS011;1659;51.470;6.770;2022-12-10T01:06:44;93.27;;;33.40;;
3293;SDS011;1659;51.470;6.770;2022-12-10T01:09:12;86.77;;;35.43;;
3293;SDS011;1659;51.470;6.770;2022-12-10T01:11:43;86.73;;;34.90;;
3293;SDS011;1659;51.470;6.770;2022-12-10T01:14:12;78.63;;;33.53;;
3293;SDS011;1659;51.470;6.770;2022-12-10T01:16:42;84.83;;;34.80;;
3293;SDS011;1659;51.470;6.770;2022-12-10T01:19:09;88.03;;;34.97;;
3293;SDS011;1659;51.470;6.770;2022-12-10T01:21:36;79.43;;;32.80;;
3293;SDS011;1659;51.470;6.770;2022-12-10T01:24:03;95.97;;;35.87;;
3293;SDS011;1659;51.470;6.770;2022-12-10T01:26:31;92.33;;;35.77;;
3293;SDS011;1659;51.470;6.770;2022-12-10T01:29:01;98.60;;;36.37;;
3293;SDS011;1659;51.470;6.770;2022-12-10T01:31:30;84.90;;;36.60;;
3293;SDS011;1659;51.470;6.770;2022-12-10T01:33:59;80.90;;;34.83;;
3293;SDS011;1659;51.470;6.770;2022-12-10T01:36:26;82.07;;;31.57;;
3293;SDS011;1659;51.470;6.770;2022-12-10T01:38:55;89.00;;;36.07;;
3293;SDS011;1659;51.470;6.770;2022-12-10T01:41:23;86.23;;;36.03;;
3293;SDS011;1659;51.470;6.770;2022-12-10T01:43:53;85.03;;;36.50;;
3293;SDS011;1659;51.470;6.770;2022-12-10T01:46:23;84.90;;;34.80;;
3293;SDS011;1659;51.470;6.770;2022-12-10T01:48:50;92.93;;;36.47;;
3293;SDS011;1659;51.470;6.770;2022-12-10T01:51:17;78.10;;;33.03;;
3293;SDS011;1659;51.470;6.770;2022-12-10T01:53:44;97.03;;;34.77;;
3293;SDS011;1659;51.470;6.770;2022-12-10T01:56:12;92.00;;;34.97;;
3293;SDS011;1659;51.470;6.770;2022-12-10T01:58:41;91.17;;;37.33;;
3293;SDS011;1659;51.470;6.770;2022-12-10T02:01:09;95.30;;;35.03;;
3293;SDS011;1659;51.470;6.770;2022-12-10T02:03:45;88.13;;;34.37;;
3293;SDS011;1659;51.470;6.770;2022-12-10T02:06:29;92.10;;;37.63;;
3293;SDS011;1659;51.470;6.770;2022-12-10T02:09:06;88.57;;;36.93;;
3293;SDS011;1659;51.470;6.770;2022-12-10T02:11:40;103.77;;;37.00;;
3293;SDS011;1659;51.470;6.770;2022-12-10T02:14:12;83.53;;;35.43;;
3293;SDS011;1659;51.470;6.770;2022-12-10T02:16:44;91.77;;;37.00;;
3293;SDS011;1659;51.470;6.770;2022-12-10T02:19:19;106.77;;;39.43;;
3293;SDS011;1659;51.470;6.770;2022-12-10T02:21:52;98.47;;;38.77;;
3293;SDS011;1659;51.470;6.770;2022-12-10T02:24:22;111.53;;;38.30;;
3293;SDS011;1659;51.470;6.770;2022-12-10T02:26:56;91.20;;;36.30;;
3293;SDS011;1659;51.470;6.770;2022-12-10T02:29:32;100.07;;;39.13;;
3293;SDS011;1659;51.470;6.770;2022-12-10T02:32:01;99.13;;;39.20;;
3293;SDS011;1659;51.470;6.770;2022-12-10T02:34:32;105.20;;;39.67;;
3293;SDS011;1659;51.470;6.770;2022-12-10T02:37:04;95.50;;;38.87;;
3293;SDS011;1659;51.470;6.770;2022-12-10T02:39:35;116.77;;;42.27;;
3293;SDS011;1659;51.470;6.770;2022-12-10T02:42:06;121.73;;;41.77;;
3293;SDS011;1659;51.470;6.770;2022-12-10T02:44:36;112.80;;;42.50;;
3293;SDS011;1659;51.470;6.770;2022-12-10T02:47:06;109.53;;;44.40;;
3293;SDS011;1659;51.470;6.770;2022-12-10T02:49:33;103.80;;;42.60;;
3293;SDS011;1659;51.470;6.770;2022-12-10T02:52:05;104.87;;;43.93;;
3293;SDS011;1659;51.470;6.770;2022-12-10T02:54:34;125.63;;;43.30;;
3293;SDS011;1659;51.470;6.770;2022-12-10T02:57:05;106.83;;;42.37;;
3293;SDS011;1659;51.470;6.770;2022-12-10T02:59:41;107.50;;;44.57;;
3293;SDS011;1659;51.470;6.770;2022-12-10T03:02:18;105.57;;;40.13;;
3293;SDS011;1659;51.470;6.770;2022-12-10T03:04:52;108.53;;;40.23;;
3293;SDS011;1659;51.470;6.770;2022-12-10T03:07:25;112.30;;;40.97;;
3293;SDS011;1659;51.470;6.770;2022-12-10T03:10:00;109.73;;;43.10;;
3293;SDS011;1659;51.470;6.770;2022-12-10T03:12:31;117.23;;;43.23;;
3293;SDS011;1659;51.470;6.770;2022-12-10T03:15:04;112.17;;;43.73;;
3293;SDS011;1659;51.470;6.770;2022-12-10T03:17:34;113.50;;;41.90;;
3293;SDS011;1659;51.470;6.770;2022-12-10T03:20:04;117.07;;;43.97;;
3293;SDS011;1659;51.470;6.770;2022-12-10T03:22:34;115.77;;;45.00;;
3293;SDS011;1659;51.470;6.770;2022-12-10T03:25:03;121.30;;;43.93;;
3293;SDS011;1659;51.470;6.770;2022-12-10T03:27:31;97.63;;;42.80;;
3293;SDS011;1659;51.470;6.770;2022-12-10T03:29:59;112.47;;;43.43;;
3293;SDS011;1659;51.470;6.770;2022-12-10T03:32:27;122.97;;;43.97;;
3293;SDS011;1659;51.470;6.770;2022-12-10T03:34:55;123.23;;;43.60;;
3293;SDS011;1659;51.470;6.770;2022-12-10T03:37:24;130.07;;;46.77;;
3293;SDS011;1659;51.470;6.770;2022-12-10T03:39:53;102.80;;;42.63;;
3293;SDS011;1659;51.470;6.770;2022-12-10T03:42:20;111.30;;;44.83;;
3293;SDS011;1659;51.470;6.770;2022-12-10T03:44:48;121.47;;;45.13;;
3293;SDS011;1659;51.470;6.770;2022-12-10T03:47:15;119.80;;;45.00;;
3293;SDS011;1659;51.470;6.770;2022-12-10T03:49:43;110.73;;;41.97;;
3293;SDS011;1659;51.470;6.770;2022-12-10T03:52:10;103.53;;;40.80;;
3293;SDS011;1659;51.470;6.770;2022-12-10T03:54:37;107.73;;;41.93;;
3293;SDS011;1659;51.470;6.770;2022-12-10T03:57:04;102.63;;;39.53;;
3293;SDS011;1659;51.470;6.770;2022-12-10T03:59:30;118.40;;;42.63;;
3293;SDS011;1659;51.470;6.770;2022-12-10T04:01:57;110.27;;;44.00;;
3293;SDS011;1659;51.470;6.770;2022-12-10T04:04:24;108.00;;;42.03;;
3293;SDS011;1659;51.470;6.770;2022-12-10T04:06:51;113.07;;;43.30;;
3293;SDS011;1659;51.470;6.770;2022-12-10T04:09:18;115.47;;;43.07;;
3293;SDS011;1659;51.470;6.770;2022-12-10T04:11:44;121.17;;;45.77;;
3293;SDS011;1659;51.470;6.770;2022-12-10T04:14:11;118.40;;;43.70;;
3293;SDS011;1659;51.470;6.770;2022-12-10T04:16:56;109.47;;;40.57;;
3293;SDS011;1659;51.470;6.770;2022-12-10T04:19:23;128.07;;;44.70;;
3293;SDS011;1659;51.470;6.770;2022-12-10T04:21:51;120.37;;;44.40;;
3293;SDS011;1659;51.470;6.770;2022-12-10T04:24:35;120.23;;;45.97;;
3293;SDS011;1659;51.470;6.770;2022-12-10T04:27:21;126.07;;;48.33;;
3293;SDS011;1659;51.470;6.770;2022-12-10T04:29:49;128.23;;;47.70;;
3293;SDS011;1659;51.470;6.770;2022-12-10T04:32:16;120.63;;;47.73;;
3293;SDS011;1659;51.470;6.770;2022-12-10T04:34:43;118.60;;;44.07;;
3293;SDS011;1659;51.470;6.770;2022-12-10T04:37:11;130.07;;;45.87;;
3293;SDS011;1659;51.470;6.770;2022-12-10T04:39:38;119.47;;;49.30;;
3293;SDS011;1659;51.470;6.770;2022-12-10T04:42:05;125.97;;;44.97;;
3293;SDS011;1659;51.470;6.770;2022-12-10T04:44:32;122.10;;;44.00;;
3293;SDS011;1659;51.470;6.770;2022-12-10T04:46:59;125.07;;;45.10;;
3293;SDS011;1659;51.470;6.770;2022-12-10T04:49:25;129.00;;;45.20;;
3293;SDS011;1659;51.470;6.770;2022-12-10T04:51:52;126.10;;;45.70;;
3293;SDS011;1659;51.470;6.770;2022-12-10T04:54:21;126.87;;;45.70;;
3293;SDS011;1659;51.470;6.770;2022-12-10T04:56:51;129.73;;;47.83;;
3293;SDS011;1659;51.470;6.770;2022-12-10T04:59:18;124.37;;;46.90;;
3293;SDS011;1659;51.470;6.770;2022-12-10T05:01:45;133.07;;;49.80;;
3293;SDS011;1659;51.470;6.770;2022-12-10T05:04:12;124.43;;;46.40;;
3293;SDS011;1659;51.470;6.770;2022-12-10T05:06:40;161.17;;;50.63;;
3293;SDS011;1659;51.470;6.770;2022-12-10T05:09:07;141.77;;;48.37;;
3293;SDS011;1659;51.470;6.770;2022-12-10T05:11:37;133.77;;;49.87;;
3293;SDS011;1659;51.470;6.770;2022-12-10T05:14:08;135.30;;;50.63;;
3293;SDS011;1659;51.470;6.770;2022-12-10T05:16:36;148.93;;;51.50;;
3293;SDS011;1659;51.470;6.770;2022-12-10T05:19:02;120.40;;;48.60;;
3293;SDS011;1659;51.470;6.770;2022-12-10T05:21:29;148.20;;;52.40;;
3293;SDS011;1659;51.470;6.770;2022-12-10T05:24:10;138.73;;;48.90;;
3293;SDS011;1659;51.470;6.770;2022-12-10T05:26:40;154.73;;;51.30;;
3293;SDS011;1659;51.470;6.770;2022-12-10T05:29:07;136.93;;;49.73;;
3293;SDS011;1659;51.470;6.770;2022-12-10T05:31:34;155.17;;;51.93;;
3293;SDS011;1659;51.470;6.770;2022-12-10T05:34:01;138.87;;;51.00;;
3293;SDS011;1659;51.470;6.770;2022-12-10T05:36:28;156.07;;;52.10;;
3293;SDS011;1659;51.470;6.770;2022-12-10T05:38:56;157.53;;;53.93;;
3293;SDS011;1659;51.470;6.770;2022-12-10T05:41:25;141.80;;;49.80;;
3293;SDS011;1659;51.470;6.770;2022-12-10T05:43:54;150.70;;;49.37;;
3293;SDS011;1659;51.470;6.770;2022-12-10T05:46:22;162.90;;;54.90;;
3293;SDS011;1659;51.470;6.770;2022-12-10T05:48:50;140.20;;;49.90;;
3293;SDS011;1659;51.470;6.770;2022-12-10T05:51:18;164.47;;;52.40;;
3293;SDS011;1659;51.470;6.770;2022-12-10T05:53:46;152.57;;;50.87;;
3293;SDS011;1659;51.470;6.770;2022-12-10T05:56:14;167.37;;;50.33;;
3293;SDS011;1659;51.470;6.770;2022-12-10T05:58:43;173.00;;;52.40;;
3293;SDS011;1659;51.470;6.770;2022-12-10T06:01:13;151.97;;;49.43;;
3293;SDS011;1659;51.470;6.770;2022-12-10T06:03:41;164.93;;;52.40;;
3293;SDS011;1659;51.470;6.770;2022-12-10T06:06:08;165.00;;;53.70;;
3293;SDS011;1659;51.470;6.770;2022-12-10T06:08:35;163.67;;;53.33;;
3293;SDS011;1659;51.470;6.770;2022-12-10T06:11:02;175.40;;;52.20;;
3293;SDS011;1659;51.470;6.770;2022-12-10T06:13:29;152.30;;;49.23;;
3293;SDS011;1659;51.470;6.770;2022-12-10T06:15:56;137.00;;;46.90;;
3293;SDS011;1659;51.470;6.770;2022-12-10T06:18:24;146.20;;;47.80;;
3293;SDS011;1659;51.470;6.770;2022-12-10T06:20:50;127.17;;;42.27;;
3293;SDS011;1659;51.470;6.770;2022-12-10T06:23:17;109.93;;;42.30;;
3293;SDS011;1659;51.470;6.770;2022-12-10T06:25:43;125.97;;;44.33;;
3293;SDS011;1659;51.470;6.770;2022-12-10T06:28:10;124.47;;;41.87;;
3293;SDS011;1659;51.470;6.770;2022-12-10T06:30:36;105.20;;;40.40;;
3293;SDS011;1659;51.470;6.770;2022-12-10T06:33:03;113.87;;;40.27;;
3293;SDS011;1659;51.470;6.770;2022-12-10T06:35:31;107.63;;;41.27;;
3293;SDS011;1659;51.470;6.770;2022-12-10T06:37:57;113.23;;;40.70;;
3293;SDS011;1659;51.470;6.770;2022-12-10T06:40:24;125.43;;;44.33;;
3293;SDS011;1659;51.470;6.770;2022-12-10T06:42:50;111.97;;;40.93;;
3293;SDS011;1659;51.470;6.770;2022-12-10T06:45:17;117.27;;;42.80;;
3293;SDS011;1659;51.470;6.770;2022-12-10T06:47:44;115.37;;;42.70;;
3293;SDS011;1659;51.470;6.770;2022-12-10T06:50:10;114.00;;;43.30;;
3293;SDS011;1659;51.470;6.770;2022-12-10T06:52:38;117.93;;;39.67;;
3293;SDS011;1659;51.470;6.770;2022-12-10T06:55:05;120.93;;;46.07;;
3293;SDS011;1659;51.470;6.770;2022-12-10T06:57:31;129.93;;;43.57;;
3293;SDS011;1659;51.470;6.770;2022-12-10T06:59:58;108.53;;;40.00;;
3293;SDS011;1659;51.470;6.770;2022-12-10T07:02:24;107.57;;;43.53;;
3293;SDS011;1659;51.470;6.770;2022-12-10T07:04:51;118.37;;;42.00;;
3293;SDS011;1659;51.470;6.770;2022-12-10T07:07:21;117.67;;;43.07;;
3293;SDS011;1659;51.470;6.770;2022-12-10T07:09:49;104.60;;;43.23;;
3293;SDS011;1659;51.470;6.770;2022-12-10T07:12:15;127.63;;;46.27;;
3293;SDS011;1659;51.470;6.770;2022-12-10T07:14:42;125.60;;;43.27;;
3293;SDS011;1659;51.470;6.770;2022-12-10T07:17:08;111.13;;;41.03;;
3293;SDS011;1659;51.470;6.770;2022-12-10T07:19:35;127.93;;;43.20;;
3293;SDS011;1659;51.470;6.770;2022-12-10T07:22:01;114.67;;;44.20;;
3293;SDS011;1659;51.470;6.770;2022-12-10T07:24:28;124.43;;;43.90;;
3293;SDS011;1659;51.470;6.770;2022-12-10T07:26:56;111.73;;;42.77;;
3293;SDS011;1659;51.470;6.770;2022-12-10T07:29:22;131.60;;;42.57;;
3293;SDS011;1659;51.470;6.770;2022-12-10T07:31:51;123.10;;;43.47;;
3293;SDS011;1659;51.470;6.770;2022-12-10T07:34:19;114.80;;;42.07;;
3293;SDS011;1659;51.470;6.770;2022-12-10T07:36:46;117.90;;;43.03;;
3293;SDS011;1659;51.470;6.770;2022-12-10T07:39:13;137.77;;;43.43;;
3293;SDS011;1659;51.470;6.770;2022-12-10T07:41:42;122.10;;;42.60;;
3293;SDS011;1659;51.470;6.770;2022-12-10T07:44:11;129.67;;;44.30;;
3293;SDS011;1659;51.470;6.770;2022-12-10T07:46:38;123.07;;;42.67;;
3293;SDS011;1659;51.470;6.770;2022-12-10T07:49:05;129.40;;;45.03;;
3293;SDS011;1659;51.470;6.770;2022-12-10T07:51:31;135.63;;;45.37;;
3293;SDS011;1659;51.470;6.770;2022-12-10T07:53:58;134.63;;;46.80;;
3293;SDS011;1659;51.470;6.770;2022-12-10T07:56:24;152.60;;;48.13;;
3293;SDS011;1659;51.470;6.770;2022-12-10T07:58:51;122.80;;;43.67;;
3293;SDS011;1659;51.470;6.770;2022-12-10T08:01:20;130.83;;;45.03;;
3293;SDS011;1659;51.470;6.770;2022-12-10T08:03:48;127.43;;;43.70;;
3293;SDS011;1659;51.470;6.770;2022-12-10T08:06:16;151.97;;;47.57;;
3293;SDS011;1659;51.470;6.770;2022-12-10T08:08:43;132.43;;;48.57;;
3293;SDS011;1659;51.470;6.770;2022-12-10T08:11:11;137.53;;;46.70;;
3293;SDS011;1659;51.470;6.770;2022-12-10T08:13:39;153.60;;;45.67;;
3293;SDS011;1659;51.470;6.770;2022-12-10T08:16:07;111.03;;;39.27;;
3293;SDS011;1659;51.470;6.770;2022-12-10T08:18:37;126.17;;;43.10;;
3293;SDS011;1659;51.470;6.770;2022-12-10T08:21:04;130.30;;;44.13;;
3293;SDS011;1659;51.470;6.770;2022-12-10T08:23:31;120.60;;;43.40;;
3293;SDS011;1659;51.470;6.770;2022-12-10T08:25:57;128.50;;;45.37;;
3293;SDS011;1659;51.470;6.770;2022-12-10T08:28:24;150.43;;;49.90;;
3293;SDS011;1659;51.470;6.770;2022-12-10T08:30:50;137.10;;;47.73;;
3293;SDS011;1659;51.470;6.770;2022-12-10T08:33:17;152.80;;;51.53;;
3293;SDS011;1659;51.470;6.770;2022-12-10T08:35:45;158.00;;;51.30;;
3293;SDS011;1659;51.470;6.770;2022-12-10T08:38:11;135.43;;;47.37;;
3293;SDS011;1659;51.470;6.770;2022-12-10T08:40:38;136.50;;;49.47;;
3293;SDS011;1659;51.470;6.770;2022-12-10T08:43:05;141.20;;;49.93;;
3293;SDS011;1659;51.470;6.770;2022-12-10T08:45:32;143.83;;;49.93;;
3293;SDS011;1659;51.470;6.770;2022-12-10T08:47:59;142.93;;;49.10;;
3293;SDS011;1659;51.470;6.770;2022-12-10T08:50:25;130.30;;;49.23;;
3293;SDS011;1659;51.470;6.770;2022-12-10T08:52:53;144.17;;;48.13;;
3293;SDS011;1659;51.470;6.770;2022-12-10T08:55:20;168.13;;;51.50;;
3293;SDS011;1659;51.470;6.770;2022-12-10T08:57:46;138.90;;;48.53;;
3293;SDS011;1659;51.470;6.770;2022-12-10T09:00:13;145.97;;;49.67;;
3293;SDS011;1659;51.470;6.770;2022-12-10T09:02:40;134.70;;;47.07;;
3293;SDS011;1659;51.470;6.770;2022-12-10T09:05:07;155.20;;;50.93;;
3293;SDS011;1659;51.470;6.770;2022-12-10T09:07:34;155.07;;;51.60;;
3293;SDS011;1659;51.470;6.770;2022-12-10T09:10:02;141.20;;;52.33;;
3293;SDS011;1659;51.470;6.770;2022-12-10T09:12:29;119.20;;;42.37;;
3293;SDS011;1659;51.470;6.770;2022-12-10T09:14:55;152.23;;;46.77;;
3293;SDS011;1659;51.470;6.770;2022-12-10T09:17:22;156.90;;;48.77;;
3293;SDS011;1659;51.470;6.770;2022-12-10T09:19:48;135.50;;;46.30;;
3293;SDS011;1659;51.470;6.770;2022-12-10T09:22:15;148.63;;;49.40;;
3293;SDS011;1659;51.470;6.770;2022-12-10T09:24:42;140.70;;;48.83;;
3293;SDS011;1659;51.470;6.770;2022-12-10T09:27:09;150.47;;;45.77;;
3293;SDS011;1659;51.470;6.770;2022-12-10T09:29:36;134.80;;;48.50;;
3293;SDS011;1659;51.470;6.770;2022-12-10T09:32:03;139.03;;;46.00;;
3293;SDS011;1659;51.470;6.770;2022-12-10T09:34:29;121.10;;;45.00;;
3293;SDS011;1659;51.470;6.770;2022-12-10T09:36:56;124.50;;;44.13;;
3293;SDS011;1659;51.470;6.770;2022-12-10T09:39:22;147.03;;;44.67;;
3293;SDS011;1659;51.470;6.770;2022-12-10T09:41:52;127.80;;;45.23;;
3293;SDS011;1659;51.470;6.770;2022-12-10T09:44:31;138.90;;;50.77;;
3293;SDS011;1659;51.470;6.770;2022-12-10T09:47:08;153.43;;;49.83;;
3293;SDS011;1659;51.470;6.770;2022-12-10T09:49:39;146.90;;;50.50;;
3293;SDS011;1659;51.470;6.770;2022-12-10T09:52:18;146.27;;;46.83;;
3293;SDS011;1659;51.470;6.770;2022-12-10T09:54:48;139.57;;;44.67;;
3293;SDS011;1659;51.470;6.770;2022-12-10T09:57:19;145.60;;;47.23;;
3293;SDS011;1659;51.470;6.770;2022-12-10T09:59:51;135.90;;;47.17;;
3293;SDS011;1659;51.470;6.770;2022-12-10T10:02:20;146.40;;;46.73;;
3293;SDS011;1659;51.470;6.770;2022-12-10T10:04:48;138.80;;;47.57;;
3293;SDS011;1659;51.470;6.770;2022-12-10T10:07:17;116.30;;;41.47;;
3293;SDS011;1659;51.470;6.770;2022-12-10T10:09:46;107.23;;;35.90;;
3293;SDS011;1659;51.470;6.770;2022-12-10T10:12:14;113.60;;;36.47;;
3293;SDS011;1659;51.470;6.770;2022-12-10T10:14:42;91.43;;;35.57;;
3293;SDS011;1659;51.470;6.770;2022-12-10T10:17:11;115.53;;;38.53;;
3293;SDS011;1659;51.470;6.770;2022-12-10T10:19:42;126.90;;;44.23;;
3293;SDS011;1659;51.470;6.770;2022-12-10T10:22:09;96.80;;;39.03;;
3293;SDS011;1659;51.470;6.770;2022-12-10T10:24:36;112.77;;;42.77;;
3293;SDS011;1659;51.470;6.770;2022-12-10T10:27:10;119.27;;;38.70;;
3293;SDS011;1659;51.470;6.770;2022-12-10T10:29:39;124.83;;;42.93;;
3293;SDS011;1659;51.470;6.770;2022-12-10T10:32:11;92.97;;;39.13;;
3293;SDS011;1659;51.470;6.770;2022-12-10T10:34:41;113.83;;;38.77;;
3293;SDS011;1659;51.470;6.770;2022-12-10T10:37:13;89.07;;;34.40;;
3293;SDS011;1659;51.470;6.770;2022-12-10T10:39:46;102.73;;;35.67;;
3293;SDS011;1659;51.470;6.770;2022-12-10T10:42:17;91.87;;;34.13;;
3293;SDS011;1659;51.470;6.770;2022-12-10T10:44:51;89.60;;;38.03;;
3293;SDS011;1659;51.470;6.770;2022-12-10T10:47:26;91.17;;;37.20;;
3293;SDS011;1659;51.470;6.770;2022-12-10T10:49:54;95.07;;;38.00;;
3293;SDS011;1659;51.470;6.770;2022-12-10T10:52:21;77.40;;;33.30;;
3293;SDS011;1659;51.470;6.770;2022-12-10T10:54:48;72.93;;;30.67;;
3293;SDS011;1659;51.470;6.770;2022-12-10T10:57:15;88.73;;;32.30;;
3293;SDS011;1659;51.470;6.770;2022-12-10T10:59:48;76.53;;;30.90;;
3293;SDS011;1659;51.470;6.770;2022-12-10T11:02:18;75.20;;;32.43;;
3293;SDS011;1659;51.470;6.770;2022-12-10T11:04:50;74.53;;;31.93;;
3293;SDS011;1659;51.470;6.770;2022-12-10T11:07:20;85.43;;;33.20;;
3293;SDS011;1659;51.470;6.770;2022-12-10T11:09:52;77.97;;;30.90;;
3293;SDS011;1659;51.470;6.770;2022-12-10T11:12:35;80.47;;;34.67;;
3293;SDS011;1659;51.470;6.770;2022-12-10T11:15:24;77.83;;;33.93;;
3293;SDS011;1659;51.470;6.770;2022-12-10T11:17:55;94.37;;;33.73;;
3293;SDS011;1659;51.470;6.770;2022-12-10T11:20:25;85.97;;;35.53;;
3293;SDS011;1659;51.470;6.770;2022-12-10T11:22:54;70.97;;;30.23;;
3293;SDS011;1659;51.470;6.770;2022-12-10T11:25:25;68.50;;;29.90;;
3293;SDS011;1659;51.470;6.770;2022-12-10T11:28:06;67.03;;;30.97;;
3293;SDS011;1659;51.470;6.770;2022-12-10T11:30:47;68.37;;;31.37;;
3293;SDS011;1659;51.470;6.770;2022-12-10T11:33:21;71.53;;;31.40;;
3293;SDS011;1659;51.470;6.770;2022-12-10T11:35:59;58.13;;;30.13;;
3293;SDS011;1659;51.470;6.770;2022-12-10T11:38:35;77.67;;;31.60;;
3293;SDS011;1659;51.470;6.770;2022-12-10T11:41:09;80.07;;;33.03;;
3293;SDS011;1659;51.470;6.770;2022-12-10T11:43:56;66.17;;;29.60;;
3293;SDS011;1659;51.470;6.770;2022-12-10T11:46:42;72.30;;;32.30;;
3293;SDS011;1659;51.470;6.770;2022-12-10T11:49:23;65.33;;;31.50;;
3293;SDS011;1659;51.470;6.770;2022-12-10T11:51:59;71.97;;;31.27;;
3293;SDS011;1659;51.470;6.770;2022-12-10T11:54:43;77.60;;;33.07;;
3293;SDS011;1659;51.470;6.770;2022-12-10T11:57:26;79.80;;;35.00;;
3293;SDS011;1659;51.470;6.770;2022-12-10T12:00:02;70.17;;;34.27;;
3293;SDS011;1659;51.470;6.770;2022-12-10T12:02:47;76.30;;;32.83;;
3293;SDS011;1659;51.470;6.770;2022-12-10T12:05:29;81.07;;;34.10;;
3293;SDS011;1659;51.470;6.770;2022-12-10T12:08:09;77.63;;;33.40;;
3293;SDS011;1659;51.470;6.770;2022-12-10T12:10:52;73.67;;;31.87;;
3293;SDS011;1659;51.470;6.770;2022-12-10T12:13:28;71.27;;;32.33;;
3293;SDS011;1659;51.470;6.770;2022-12-10T12:16:00;78.03;;;32.83;;
3293;SDS011;1659;51.470;6.770;2022-12-10T12:18:33;77.40;;;34.90;;
3293;SDS011;1659;51.470;6.770;2022-12-10T12:21:07;87.53;;;36.50;;
3293;SDS011;1659;51.470;6.770;2022-12-10T12:23:40;100.77;;;36.90;;
3293;SDS011;1659;51.470;6.770;2022-12-10T12:26:13;78.17;;;35.13;;
3293;SDS011;1659;51.470;6.770;2022-12-10T12:28:43;101.33;;;37.27;;
3293;SDS011;1659;51.470;6.770;2022-12-10T12:31:15;99.37;;;38.37;;
3293;SDS011;1659;51.470;6.770;2022-12-10T12:33:47;87.30;;;35.63;;
3293;SDS011;1659;51.470;6.770;2022-12-10T12:36:18;97.33;;;37.80;;
3293;SDS011;1659;51.470;6.770;2022-12-10T12:38:51;91.73;;;35.67;;
3293;SDS011;1659;51.470;6.770;2022-12-10T12:41:27;78.73;;;33.03;;
3293;SDS011;1659;51.470;6.770;2022-12-10T12:44:00;78.13;;;32.93;;
3293;SDS011;1659;51.470;6.770;2022-12-10T12:46:35;89.93;;;38.80;;
3293;SDS011;1659;51.470;6.770;2022-12-10T12:49:09;109.47;;;40.27;;
3293;SDS011;1659;51.470;6.770;2022-12-10T12:51:42;98.10;;;37.53;;
3293;SDS011;1659;51.470;6.770;2022-12-10T12:54:13;86.57;;;36.07;;
3293;SDS011;1659;51.470;6.770;2022-12-10T12:56:46;84.37;;;35.30;;
3293;SDS011;1659;51.470;6.770;2022-12-10T12:59:25;92.40;;;36.70;;
3293;SDS011;1659;51.470;6.770;2022-12-10T13:02:02;109.33;;;40.37;;
3293;SDS011;1659;51.470;6.770;2022-12-10T13:04:42;108.27;;;39.60;;
3293;SDS011;1659;51.470;6.770;2022-12-10T13:07:11;108.63;;;39.47;;
3293;SDS011;1659;51.470;6.770;2022-12-10T13:10:09;105.57;;;38.47;;
3293;SDS011;1659;51.470;6.770;2022-12-10T13:12:47;110.87;;;41.07;;
3293;SDS011;1659;51.470;6.770;2022-12-10T13:15:18;101.23;;;38.30;;
3293;SDS011;1659;51.470;6.770;2022-12-10T13:18:02;95.63;;;36.07;;
3293;SDS011;1659;51.470;6.770;2022-12-10T13:20:32;99.17;;;40.30;;
3293;SDS011;1659;51.470;6.770;2022-12-10T13:23:01;106.10;;;39.43;;
3293;SDS011;1659;51.470;6.770;2022-12-10T13:25:39;112.53;;;40.07;;
3293;SDS011;1659;51.470;6.770;2022-12-10T13:28:22;110.90;;;43.47;;
3293;SDS011;1659;51.470;6.770;2022-12-10T13:31:07;124.23;;;43.40;;
3293;SDS011;1659;51.470;6.770;2022-12-10T13:33:47;116.63;;;43.67;;
3293;SDS011;1659;51.470;6.770;2022-12-10T13:36:20;116.13;;;41.53;;
3293;SDS011;1659;51.470;6.770;2022-12-10T13:38:56;112.80;;;41.70;;
3293;SDS011;1659;51.470;6.770;2022-12-10T13:41:40;109.73;;;40.50;;
3293;SDS011;1659;51.470;6.770;2022-12-10T13:44:31;100.43;;;39.60;;
3293;SDS011;1659;51.470;6.770;2022-12-10T13:47:21;93.00;;;34.27;;
3293;SDS011;1659;51.470;6.770;2022-12-10T13:49:52;95.73;;;38.10;;
3293;SDS011;1659;51.470;6.770;2022-12-10T13:52:22;97.47;;;34.33;;
3293;SDS011;1659;51.470;6.770;2022-12-10T13:57:53;92.00;;;34.50;;
3293;SDS011;1659;51.470;6.770;2022-12-10T14:00:31;95.97;;;38.20;;
3293;SDS011;1659;51.470;6.770;2022-12-10T14:03:09;101.57;;;39.40;;
3293;SDS011;1659;51.470;6.770;2022-12-10T14:06:02;116.67;;;37.73;;
3293;SDS011;1659;51.470;6.770;2022-12-10T14:08:38;94.37;;;36.20;;
3293;SDS011;1659;51.470;6.770;2022-12-10T14:11:10;92.50;;;35.00;;
3293;SDS011;1659;51.470;6.770;2022-12-10T14:13:47;86.63;;;33.43;;
3293;SDS011;1659;51.470;6.770;2022-12-10T14:16:20;81.53;;;33.10;;
3293;SDS011;1659;51.470;6.770;2022-12-10T14:18:50;112.87;;;39.00;;
3293;SDS011;1659;51.470;6.770;2022-12-10T14:21:19;91.23;;;35.30;;
3293;SDS011;1659;51.470;6.770;2022-12-10T14:23:47;101.37;;;35.90;;
3293;SDS011;1659;51.470;6.770;2022-12-10T14:26:15;98.97;;;37.37;;
3293;SDS011;1659;51.470;6.770;2022-12-10T14:28:44;108.57;;;36.10;;
3293;SDS011;1659;51.470;6.770;2022-12-10T14:31:15;98.73;;;36.40;;
3293;SDS011;1659;51.470;6.770;2022-12-10T14:33:45;80.27;;;34.83;;
3293;SDS011;1659;51.470;6.770;2022-12-10T14:36:20;88.07;;;34.10;;
3293;SDS011;1659;51.470;6.770;2022-12-10T14:38:52;87.73;;;33.20;;
3293;SDS011;1659;51.470;6.770;2022-12-10T14:41:20;83.07;;;32.50;;
3293;SDS011;1659;51.470;6.770;2022-12-10T14:43:50;84.20;;;34.10;;
3293;SDS011;1659;51.470;6.770;2022-12-10T14:46:18;86.87;;;33.90;;
3293;SDS011;1659;51.470;6.770;2022-12-10T14:48:48;91.10;;;35.10;;
3293;SDS011;1659;51.470;6.770;2022-12-10T14:51:18;84.00;;;34.13;;
3293;SDS011;1659;51.470;6.770;2022-12-10T14:53:47;89.70;;;33.67;;
3293;SDS011;1659;51.470;6.770;2022-12-10T14:56:20;80.17;;;36.43;;
3293;SDS011;1659;51.470;6.770;2022-12-10T14:58:57;70.57;;;30.07;;
3293;SDS011;1659;51.470;6.770;2022-12-10T15:01:33;86.77;;;30.63;;